createdAt,value
2022-08-19T00:04:39.290Z,19.67
2022-08-19T00:09:40.815Z,19.56
2022-08-19T00:14:42.027Z,19.44
2022-08-19T00:19:43.489Z,19.4
2022-08-19T00:24:49.543Z,19.37
2022-08-19T00:29:52.267Z,19.48
2022-08-19T00:34:48.749Z,19.54
2022-08-19T00:39:50.629Z,19.58
2022-08-19T00:44:51.833Z,19.56
2022-08-19T00:49:53.285Z,19.57
2022-08-19T00:54:55.048Z,19.54
2022-08-19T01:00:02.081Z,19.71
2022-08-19T01:04:58.474Z,19.95
2022-08-19T01:09:59.896Z,20.03
2022-08-19T01:15:01.191Z,20.04
2022-08-19T01:20:03.000Z,20.07
2022-08-19T01:25:06.225Z,20.1
2022-08-19T01:30:07.231Z,20.12
2022-08-19T01:35:08.370Z,20.27
2022-08-19T01:40:10.049Z,20.41
2022-08-19T01:45:11.940Z,20.4
2022-08-19T01:50:13.543Z,20.37
2022-08-19T01:55:15.200Z,20.31
2022-08-19T02:00:16.939Z,20.27
2022-08-19T02:05:18.426Z,20.29
2022-08-19T02:10:20.431Z,20.45
2022-08-19T02:15:22.310Z,20.52
2022-08-19T02:20:23.608Z,20.45
2022-08-19T02:25:25.551Z,20.43
2022-08-19T02:30:27.694Z,20.33
2022-08-19T02:35:28.902Z,20.14
2022-08-19T02:40:30.114Z,20
2022-08-19T02:45:31.953Z,20
2022-08-19T02:50:34.013Z,19.98
2022-08-19T02:55:45.735Z,19.95
2022-08-19T03:00:37.706Z,19.96
2022-08-19T03:05:48.060Z,20.01
2022-08-19T03:10:40.853Z,20.04
2022-08-19T03:15:42.301Z,20.1
2022-08-19T03:20:44.039Z,20.19
2022-08-19T03:25:45.834Z,20.28
2022-08-19T03:30:48.014Z,20.23
2022-08-19T03:35:49.855Z,20.1
2022-08-19T03:40:52.020Z,20.01
2022-08-19T03:45:54.037Z,19.99
2022-08-19T03:50:55.489Z,19.95
2022-08-19T03:55:57.543Z,20.11
2022-08-19T04:00:59.397Z,20.21
2022-08-19T04:06:01.142Z,20.24
2022-08-19T04:11:02.852Z,20.26
2022-08-19T04:16:04.347Z,20.27
2022-08-19T04:21:05.821Z,20.28
2022-08-19T04:26:07.661Z,20.32
2022-08-19T04:31:09.803Z,20.45
2022-08-19T04:36:11.272Z,20.57
2022-08-19T04:41:13.083Z,20.55
2022-08-19T04:46:15.994Z,20.57
2022-08-19T04:51:16.438Z,20.57
2022-08-19T04:56:18.386Z,20.57
2022-08-19T05:01:20.290Z,20.52
2022-08-19T05:06:22.267Z,20.61
2022-08-19T05:11:26.517Z,20.75
2022-08-19T05:16:25.352Z,20.73
2022-08-19T05:21:26.807Z,20.72
2022-08-19T05:26:28.902Z,20.48
2022-08-19T05:31:30.498Z,20.4
2022-08-19T05:36:32.169Z,20.37
2022-08-19T05:41:33.570Z,20.44
2022-08-19T05:46:35.325Z,20.6
2022-08-19T05:51:37.037Z,20.62
2022-08-19T05:56:38.998Z,20.61
2022-08-19T06:01:40.764Z,20.61
2022-08-19T06:06:42.212Z,20.58
2022-08-19T06:11:43.994Z,20.73
2022-08-19T06:16:46.236Z,20.83
2022-08-19T06:21:48.237Z,21.02
2022-08-19T06:26:49.944Z,21.23
2022-08-19T06:31:51.539Z,21.4
2022-08-19T06:36:53.584Z,21.65
2022-08-19T06:41:56.871Z,21.98
2022-08-19T06:46:56.398Z,21.97
2022-08-19T06:51:57.800Z,22
2022-08-19T06:56:59.597Z,22.12
2022-08-19T07:02:01.670Z,22.23
2022-08-19T07:07:19.816Z,22.23
2022-08-19T07:12:06.925Z,22.21
2022-08-19T07:17:07.256Z,22.06
2022-08-19T07:22:08.641Z,22.01
2022-08-19T07:27:10.352Z,22.01
2022-08-19T07:32:11.529Z,22.11
2022-08-19T07:37:13.240Z,22.17
2022-08-19T07:42:15.212Z,22.17
2022-08-19T07:47:48.630Z,22.24
2022-08-19T07:52:18.620Z,22.18
2022-08-19T07:57:20.775Z,22.11
2022-08-19T08:02:22.599Z,22.07
2022-08-19T08:07:24.084Z,22.16
2022-08-19T08:12:33.976Z,22.22
2022-08-19T08:17:31.196Z,22.24
2022-08-19T08:22:29.116Z,22.22
2022-08-19T08:27:31.004Z,22.18
2022-08-19T08:32:32.547Z,22.09
2022-08-19T08:37:33.907Z,22.04
2022-08-19T08:42:35.553Z,22.08
2022-08-19T08:47:37.298Z,22.18
2022-08-19T08:52:39.415Z,22.25
2022-08-19T08:57:41.226Z,22.31
2022-08-19T09:02:43.320Z,22.39
2022-08-19T09:07:47.328Z,22.37
2022-08-19T09:12:46.539Z,22.45
2022-08-19T09:17:50.074Z,22.6
2022-08-19T09:22:50.691Z,22.68
2022-08-19T09:27:52.629Z,22.7
2022-08-19T09:32:54.559Z,22.64
2022-08-19T09:37:57.525Z,22.66
2022-08-19T09:42:57.746Z,22.64
2022-08-19T09:47:59.051Z,22.66
2022-08-19T09:53:00.838Z,22.74
2022-08-19T09:58:02.719Z,22.73
2022-08-19T10:03:04.689Z,22.7
2022-08-19T10:08:06.416Z,22.75
2022-08-19T10:13:08.106Z,22.77
2022-08-19T10:13:14.392Z,22.78
2022-08-19T10:18:15.751Z,22.83
2022-08-19T10:23:17.223Z,22.94
2022-08-19T10:28:19.657Z,23.04
2022-08-19T11:03:29.819Z,24.14
2022-08-19T11:08:31.701Z,24.42
2022-08-19T11:13:33.390Z,24.62
2022-08-19T11:28:37.942Z,25.03
2022-08-19T11:43:42.737Z,25.04
2022-08-19T11:48:44.645Z,25.04
2022-08-19T11:53:46.074Z,25.09
2022-08-19T11:58:47.253Z,25.07
2022-08-19T12:03:48.752Z,25.08
2022-08-19T12:13:51.433Z,25.11
2022-08-19T12:18:53.158Z,25.12
2022-08-19T12:23:55.877Z,25.03
2022-08-19T12:28:55.797Z,25.01
2022-08-19T12:33:57.884Z,24.81
2022-08-19T12:38:59.193Z,24.85
2022-08-19T12:44:00.386Z,24.92
2022-08-19T12:49:02.756Z,24.93
2022-08-19T12:54:04.449Z,24.89
2022-08-19T12:59:06.489Z,24.78
2022-08-19T13:04:08.199Z,24.72
2022-08-19T13:09:09.419Z,24.65
2022-08-19T13:14:10.822Z,24.63
2022-08-19T13:19:12.650Z,24.52
2022-08-19T13:24:14.239Z,24.37
2022-08-19T13:29:15.410Z,24.28
2022-08-19T13:34:16.744Z,24.14
2022-08-19T13:39:18.608Z,24.1
2022-08-19T13:44:20.386Z,24.17
2022-08-19T13:49:21.791Z,24.3
2022-08-19T13:54:23.591Z,24.26
2022-08-19T13:59:25.078Z,24.23
2022-08-19T14:04:27.034Z,24.21
2022-08-19T14:09:28.668Z,24.15
2022-08-19T14:14:30.095Z,24.15
2022-08-19T14:19:31.315Z,24.18
2022-08-19T14:24:33.096Z,24.15
2022-08-19T14:29:34.822Z,24.02
2022-08-19T14:34:36.331Z,23.94
2022-08-19T14:39:37.953Z,23.95
2022-08-19T14:44:39.236Z,23.99
2022-08-19T14:49:42.369Z,23.99
2022-08-19T14:54:42.834Z,24
2022-08-19T14:59:44.924Z,23.92
2022-08-19T15:04:47.052Z,23.79
2022-08-19T15:09:48.989Z,23.71
2022-08-19T15:14:50.442Z,23.61
2022-08-19T15:19:51.891Z,23.44
2022-08-19T15:24:53.843Z,23.29
2022-08-19T15:29:56.471Z,23.23
2022-08-19T15:34:56.894Z,23.07
2022-08-19T15:39:58.730Z,23.01
2022-08-19T15:45:00.454Z,22.88
2022-08-19T15:50:02.221Z,22.77
2022-08-19T15:55:04.237Z,22.72
2022-08-19T16:00:06.010Z,22.78
2022-08-19T16:05:07.671Z,22.82
2022-08-19T16:10:26.736Z,22.71
2022-08-19T16:15:11.432Z,22.57
2022-08-19T16:20:13.578Z,22.58
2022-08-19T16:25:14.808Z,22.53
2022-08-19T16:30:16.769Z,22.51
2022-08-19T16:35:17.956Z,22.54
2022-08-19T16:40:19.576Z,22.35
2022-08-19T16:45:21.477Z,22.29
2022-08-19T16:50:39.222Z,22.25
2022-08-19T16:55:25.438Z,22.23
2022-08-19T17:00:27.560Z,22.2
2022-08-19T17:05:29.086Z,22.26
2022-08-19T17:10:31.160Z,22.29
2022-08-19T17:15:33.110Z,22.13
2022-08-19T17:20:34.288Z,22.06
2022-08-19T17:25:36.033Z,22
2022-08-19T17:30:38.178Z,21.9
2022-08-19T17:35:39.553Z,21.78
2022-08-19T17:40:40.988Z,21.77
2022-08-19T17:45:42.711Z,21.68
2022-08-19T17:50:44.284Z,21.52
2022-08-19T17:55:48.067Z,21.44
2022-08-19T18:00:53.440Z,21.36
2022-08-19T18:05:49.024Z,21.26
2022-08-19T18:10:50.357Z,21.23
2022-08-19T18:15:52.177Z,21.23
2022-08-19T18:20:53.836Z,21.22
2022-08-19T18:25:55.476Z,21.09
2022-08-19T18:30:57.389Z,20.89
2022-08-19T18:35:58.608Z,20.63
2022-08-19T18:41:00.551Z,20.52
2022-08-19T18:46:01.781Z,20.45
2022-08-19T18:51:03.057Z,20.52
2022-08-19T18:56:05.127Z,20.51
2022-08-19T19:01:07.172Z,20.45
2022-08-19T19:06:09.223Z,20.31
2022-08-19T19:11:10.648Z,20.1
2022-08-19T19:16:11.959Z,20.02
2022-08-19T19:21:13.360Z,19.95
2022-08-19T19:26:14.885Z,20.01
2022-08-19T19:31:16.761Z,19.93
2022-08-19T19:36:18.264Z,19.75
2022-08-19T19:41:20.096Z,19.66
2022-08-19T19:46:21.571Z,19.57
2022-08-19T19:51:22.849Z,19.49
2022-08-19T19:56:24.922Z,19.42
2022-08-19T20:01:26.786Z,19.41
2022-08-19T20:06:28.218Z,19.36
2022-08-19T20:11:29.707Z,19.2
2022-08-19T20:16:31.081Z,19.11
2022-08-19T20:21:32.849Z,19.04
2022-08-19T20:26:34.744Z,19.03
2022-08-19T20:31:36.454Z,19
2022-08-19T20:36:38.024Z,19.06
2022-08-19T20:41:40.003Z,19.2
2022-08-19T20:46:41.078Z,19.15
2022-08-19T20:51:43.002Z,19.11
2022-08-19T20:56:44.418Z,19.1
2022-08-19T21:01:46.074Z,19.06
2022-08-19T21:06:47.490Z,19.04
2022-08-19T21:11:49.549Z,19.07
2022-08-19T21:16:51.457Z,19.2
2022-08-19T21:21:53.418Z,19.28
2022-08-19T21:26:55.480Z,19.23
2022-08-19T21:31:57.095Z,19.2
2022-08-19T21:36:58.498Z,19.18
2022-08-19T21:42:00.468Z,19.11
2022-08-19T21:47:02.190Z,19.09
2022-08-19T21:52:03.632Z,19.04
2022-08-19T21:57:05.233Z,19.12
2022-08-19T22:12:09.671Z,19.19
2022-08-19T22:17:11.345Z,19.17
2022-08-19T22:22:13.438Z,19.14
2022-08-19T22:27:15.590Z,19.1
2022-08-19T22:32:26.417Z,19.14
2022-08-19T22:37:19.036Z,19.14
2022-08-19T22:42:20.450Z,19.12
2022-08-19T22:47:22.392Z,19.1
2022-08-19T22:52:23.580Z,19.09
2022-08-19T22:57:24.828Z,19.04
2022-08-19T23:02:26.689Z,19.02
2022-08-19T23:07:28.615Z,19.02
2022-08-19T23:12:30.669Z,19.11
2022-08-19T23:17:32.150Z,19.15
2022-08-19T23:22:33.646Z,19.04
2022-08-19T23:27:35.745Z,18.96
2022-08-19T23:32:37.126Z,18.94
2022-08-19T23:37:38.409Z,18.92
2022-08-19T23:42:40.475Z,18.91
2022-08-19T23:47:42.096Z,18.9
2022-08-19T23:52:44.168Z,18.96
2022-08-19T23:57:45.722Z,19.04
